Time;durP1;ratioP1;P1;durP2;ratioP2;P2;SDS_P1;SDS_P2;PMS_P1;PMS_P2;Temp;Humidity;BMP_temperature;BMP_pressure;BME280_temperature;BME280_humidity;BME280_pressure;Samples;Min_cycle;Max_cycle;Signal;HPM_P1;HPM_P2
2023/01/07 00:01:05;;;;;;;85.10;36.03;;;;;;;-142.25;100.00;58004.16;5038688;28;20168;-64
2023/01/07 00:03:31;;;;;;;85.23;36.47;;;;;;;-142.25;100.00;58004.16;5034085;28;20036;-65
2023/01/07 00:06:01;;;;;;;83.87;35.53;;;;;;;-142.25;100.00;58004.16;5032727;28;20356;-65
2023/01/07 00:08:31;;;;;;;85.23;35.67;;;;;;;-142.25;100.00;58004.16;5031320;28;20077;-66
2023/01/07 00:11:05;;;;;;;85.37;36.43;;;;;;;-142.25;100.00;58004.16;5035638;28;20036;-65
2023/01/07 00:13:31;;;;;;;82.40;35.10;;;;;;;-142.25;100.00;58004.16;5035280;28;20046;-65
2023/01/07 00:16:02;;;;;;;82.80;34.90;;;;;;;-142.25;100.00;58004.16;5040186;28;20425;-66
2023/01/07 00:18:28;;;;;;;82.13;34.67;;;;;;;-142.25;100.00;58004.16;5040586;28;20044;-65
2023/01/07 00:20:59;;;;;;;82.13;34.60;;;;;;;-142.25;100.00;58004.16;5039592;28;20040;-65
2023/01/07 00:23:25;;;;;;;81.77;34.17;;;;;;;-142.25;100.00;58004.16;5037890;28;20045;-65
2023/01/07 00:25:51;;;;;;;81.50;34.30;;;;;;;-142.25;100.00;58004.16;5036890;28;20053;-64
2023/01/07 00:28:17;;;;;;;81.47;34.20;;;;;;;-142.25;100.00;58004.16;5038249;28;20111;-64
2023/01/07 00:30:43;;;;;;;80.88;33.80;;;;;;;-142.25;100.00;58004.16;5037292;28;20042;-64
2023/01/07 00:33:13;;;;;;;81.20;34.38;;;;;;;-142.25;100.00;58004.16;5037770;28;20115;-66
2023/01/07 00:35:39;;;;;;;81.45;34.78;;;;;;;-142.25;100.00;58004.16;5036722;28;20057;-64
2023/01/07 00:38:05;;;;;;;81.35;34.53;;;;;;;-142.25;100.00;58004.16;5042526;28;20416;-63
2023/01/07 00:40:32;;;;;;;80.07;34.33;;;;;;;-142.25;100.00;58004.16;5034625;28;20526;-64
2023/01/07 00:43:03;;;;;;;80.22;34.00;;;;;;;-142.25;100.00;58004.16;5036566;28;20290;-64
2023/01/07 00:45:34;;;;;;;80.75;34.75;;;;;;;-142.25;100.00;58004.16;5038443;28;20045;-63
2023/01/07 00:48:02;;;;;;;81.15;34.25;;;;;;;-142.25;100.00;58004.16;5036387;28;20049;-65
2023/01/07 00:50:33;;;;;;;83.27;35.77;;;;;;;-142.25;100.00;58004.16;5037891;28;20068;-64
2023/01/07 00:52:59;;;;;;;82.47;34.97;;;;;;;-142.25;100.00;58004.16;5040788;28;20029;-64
2023/01/07 00:55:27;;;;;;;82.50;35.10;;;;;;;-142.25;100.00;58004.16;5043298;28;20045;-65
2023/01/07 00:57:53;;;;;;;81.70;34.90;;;;;;;-142.25;100.00;58004.16;5034274;28;20059;-64
2023/01/07 01:00:21;;;;;;;82.90;35.63;;;;;;;-142.25;100.00;58004.16;5037308;28;20043;-65
2023/01/07 01:02:48;;;;;;;82.13;35.10;;;;;;;-142.25;100.00;58004.16;5036727;28;20052;-65
2023/01/07 01:05:14;;;;;;;81.70;35.07;;;;;;;-142.25;100.00;58004.16;5038906;28;20030;-63
2023/01/07 01:07:40;;;;;;;80.70;34.47;;;;;;;-142.25;100.00;58004.16;5036123;28;20040;-64
2023/01/07 01:10:09;;;;;;;82.60;36.80;;;;;;;-142.25;100.00;58004.16;5021351;28;20079;-64
2023/01/07 01:12:36;;;;;;;79.87;34.87;;;;;;;-142.25;100.00;58004.16;5032774;28;20389;-63
2023/01/07 01:15:04;;;;;;;80.93;35.50;;;;;;;-142.25;100.00;58004.16;5025302;28;20403;-63
2023/01/07 01:17:30;;;;;;;80.57;35.93;;;;;;;-142.25;100.00;58004.16;5032378;28;20067;-64
2023/01/07 01:19:55;;;;;;;79.97;34.80;;;;;;;-142.25;100.00;58004.16;5033529;28;20042;-63
2023/01/07 01:22:21;;;;;;;80.37;35.30;;;;;;;-142.25;100.00;58004.16;5034563;28;20060;-63
2023/01/07 01:24:48;;;;;;;79.97;34.90;;;;;;;-142.25;100.00;58004.16;5036565;28;20041;-65
2023/01/07 01:27:13;;;;;;;80.83;35.17;;;;;;;-142.25;100.00;58004.16;5036338;28;20088;-65
2023/01/07 01:29:39;;;;;;;80.47;35.63;;;;;;;-142.25;100.00;58004.16;5033118;28;20124;-65
2023/01/07 01:32:05;;;;;;;80.40;35.07;;;;;;;-142.25;100.00;58004.16;5036445;28;20141;-65
2023/01/07 01:34:31;;;;;;;81.40;35.27;;;;;;;-142.25;100.00;58004.16;5038718;28;20067;-65
2023/01/07 01:36:56;;;;;;;90.47;37.30;;;;;;;-142.25;100.00;58004.16;5038009;28;20080;-65
2023/01/07 01:39:22;;;;;;;229.50;95.53;;;;;;;-142.25;100.00;58004.16;5030730;28;20127;-66
2023/01/07 01:41:48;;;;;;;303.90;101.70;;;;;;;-142.25;100.00;58004.16;5031222;28;20072;-65
2023/01/07 01:44:35;;;;;;;361.43;143.70;;;;;;;-142.25;100.00;58004.16;5049543;28;20445;-65
2023/01/07 01:47:10;;;;;;;398.43;133.50;;;;;;;-142.25;100.00;58004.16;5035092;28;20291;-65
2023/01/07 01:49:39;;;;;;;382.00;144.93;;;;;;;-142.25;100.00;58004.16;5035213;28;20048;-65
2023/01/07 01:52:07;;;;;;;416.03;151.83;;;;;;;-142.25;100.00;58004.16;5030617;28;20033;-65
2023/01/07 01:54:33;;;;;;;423.90;151.37;;;;;;;-142.25;100.00;58004.16;5041910;28;20045;-64
2023/01/07 01:57:03;;;;;;;396.60;152.07;;;;;;;-142.25;100.00;58004.16;5033065;28;20651;-65
2023/01/07 01:59:33;;;;;;;414.17;153.30;;;;;;;-142.25;100.00;58004.16;5034208;28;20765;-62
2023/01/07 02:02:02;;;;;;;423.50;178.17;;;;;;;-142.25;100.00;58004.16;5032957;28;20051;-63
2023/01/07 02:04:29;;;;;;;434.63;196.73;;;;;;;-142.25;100.00;58004.16;5033126;28;20059;-65
2023/01/07 02:07:04;;;;;;;440.47;170.90;;;;;;;-142.25;100.00;58004.16;5041790;28;20077;-66
2023/01/07 02:09:31;;;;;;;431.73;181.37;;;;;;;-142.25;100.00;58004.16;5025676;28;20330;-65
2023/01/07 02:12:21;;;;;;;417.53;156.77;;;;;;;-142.25;100.00;58004.16;5020968;28;20069;-66
2023/01/07 02:15:02;;;;;;;427.33;174.37;;;;;;;-142.25;100.00;58004.16;5034181;28;20295;-64
2023/01/07 02:18:01;;;;;;;421.23;166.63;;;;;;;-142.25;100.00;58004.16;5050266;28;20371;-64
2023/01/07 02:20:45;;;;;;;422.80;174.10;;;;;;;-142.25;100.00;58004.16;4944152;28;20381;-66
2023/01/07 02:23:34;;;;;;;415.80;173.73;;;;;;;-142.25;100.00;58004.16;4959182;28;20297;-65
2023/01/07 02:27:04;;;;;;;414.33;178.43;;;;;;;-142.25;100.00;58004.16;4957449;28;20423;-64
2023/01/07 02:29:53;;;;;;;426.80;162.97;;;;;;;-142.25;100.00;58004.16;4892920;29;20380;-63
2023/01/07 02:32:47;;;;;;;415.83;160.60;;;;;;;-142.25;100.00;58004.16;4906978;29;20281;-66
2023/01/07 02:35:34;;;;;;;421.23;160.87;;;;;;;-142.25;100.00;58004.16;4904684;29;20300;-66
2023/01/07 02:38:20;;;;;;;438.70;179.97;;;;;;;-142.25;100.00;58004.16;4905614;29;20769;-63
2023/01/07 02:40:54;;;;;;;438.35;202.35;;;;;;;-142.25;100.00;58004.16;4904681;29;20472;-65
2023/01/07 02:43:34;;;;;;;424.50;172.03;;;;;;;-142.25;100.00;58004.16;4890260;29;20048;-63
2023/01/07 02:46:18;;;;;;;424.27;176.37;;;;;;;-142.25;100.00;58004.16;4905160;29;20632;-64
2023/01/07 02:48:47;;;;;;;440.17;178.17;;;;;;;-142.25;100.00;58004.16;4906669;29;20386;-65
2023/01/07 02:51:14;;;;;;;441.17;184.07;;;;;;;-142.25;100.00;58004.16;4887181;29;20104;-67
2023/01/07 02:53:43;;;;;;;442.03;187.50;;;;;;;-142.25;100.00;58004.16;4905175;29;20366;-63
2023/01/07 02:56:27;;;;;;;436.00;184.70;;;;;;;-142.25;100.00;58004.16;4889601;29;20052;-64
2023/01/07 02:59:21;;;;;;;445.15;192.00;;;;;;;-142.25;100.00;58004.16;4967648;28;20290;-65
2023/01/07 03:01:59;;;;;;;439.87;190.67;;;;;;;-142.25;100.00;58004.16;5043457;28;20055;-66
2023/01/07 03:04:50;;;;;;;440.60;192.60;;;;;;;-142.25;100.00;58004.16;5043704;28;20065;-64
2023/01/07 03:07:54;;;;;;;450.63;201.63;;;;;;;-142.25;100.00;58004.16;5034758;28;20310;-64
2023/01/07 03:10:31;;;;;;;439.87;188.87;;;;;;;-142.25;100.00;58004.16;4984368;28;20099;-64
2023/01/07 03:12:56;;;;;;;443.27;196.27;;;;;;;-142.25;100.00;58004.16;5039278;28;20287;-65
2023/01/07 03:15:38;;;;;;;441.33;198.40;;;;;;;-142.25;100.00;58004.16;5036817;28;20135;-65
2023/01/07 03:18:14;;;;;;;441.80;208.43;;;;;;;-142.25;100.00;58004.16;5036031;28;20049;-64
2023/01/07 03:20:43;;;;;;;;;;;;;;;-142.25;100.00;58004.16;5034512;28;20283;-64
2023/01/07 03:23:12;;;;;;;434.37;193.10;;;;;;;-142.25;100.00;58004.16;5033053;28;19936;-65
2023/01/07 03:25:43;;;;;;;439.43;205.40;;;;;;;-142.25;100.00;58004.16;5037069;28;20306;-63
2023/01/07 03:28:12;;;;;;;447.77;213.83;;;;;;;-142.25;100.00;58004.16;5045478;28;20295;-64
2023/01/07 03:30:38;;;;;;;446.07;206.33;;;;;;;-142.25;100.00;58004.16;5041129;28;20500;-66
2023/01/07 03:33:10;;;;;;;442.13;207.83;;;;;;;-142.25;100.00;58004.16;5039068;28;20033;-67
2023/01/07 03:35:40;;;;;;;447.67;210.70;;;;;;;-142.25;100.00;58004.16;5040198;28;20449;-67
2023/01/07 03:38:08;;;;;;;440.17;205.40;;;;;;;-142.25;100.00;58004.16;5042622;28;20107;-66
2023/01/07 03:40:35;;;;;;;447.93;216.07;;;;;;;-142.25;100.00;58004.16;5037655;28;20298;-67
2023/01/07 03:43:00;;;;;;;452.60;220.53;;;;;;;-142.25;100.00;58004.16;5053722;28;20053;-67
2023/01/07 03:45:27;;;;;;;446.40;211.27;;;;;;;-142.25;100.00;58004.16;5037123;28;20749;-67
2023/01/07 03:47:56;;;;;;;443.93;214.87;;;;;;;-142.25;100.00;58004.16;5039513;28;20049;-66
2023/01/07 03:50:24;;;;;;;445.80;215.13;;;;;;;-142.25;100.00;58004.16;5038460;28;20306;-67
2023/01/07 03:52:51;;;;;;;449.90;221.60;;;;;;;-142.25;100.00;58004.16;5035278;28;20280;-66
2023/01/07 03:55:19;;;;;;;463.43;242.97;;;;;;;-142.25;100.00;58004.16;5038379;28;20053;-66
2023/01/07 03:57:46;;;;;;;458.50;238.17;;;;;;;-142.25;100.00;58004.16;5036768;28;20640;-66
2023/01/07 04:00:14;;;;;;;453.80;225.07;;;;;;;-142.25;100.00;58004.16;5044217;28;20053;-66
2023/01/07 04:02:41;;;;;;;449.73;226.53;;;;;;;-142.25;100.00;58004.16;5038104;28;20053;-66
2023/01/07 04:05:13;;;;;;;448.77;217.63;;;;;;;-142.25;100.00;58004.16;5049655;28;20038;-66
2023/01/07 04:07:40;;;;;;;453.40;218.40;;;;;;;-142.25;100.00;58004.16;5038820;28;20152;-66
2023/01/07 04:10:07;;;;;;;482.77;238.50;;;;;;;-142.25;100.00;58004.16;5036846;28;20579;-69
2023/01/07 04:12:33;;;;;;;481.83;239.40;;;;;;;-142.25;100.00;58004.16;5049071;28;20054;-66
2023/01/07 04:14:59;;;;;;;470.80;228.50;;;;;;;-142.25;100.00;58004.16;5034686;28;20692;-68
2023/01/07 04:17:25;;;;;;;463.87;216.43;;;;;;;-142.25;100.00;58004.16;5031418;28;20053;-66
2023/01/07 04:19:51;;;;;;;457.50;210.20;;;;;;;-142.25;100.00;58004.16;5025932;28;20290;-66
2023/01/07 04:22:16;;;;;;;450.20;208.17;;;;;;;-142.25;100.00;58004.16;5039939;28;20029;-66
2023/01/07 04:24:42;;;;;;;443.37;199.17;;;;;;;-142.25;100.00;58004.16;5037468;28;20044;-64
2023/01/07 04:27:09;;;;;;;444.63;207.43;;;;;;;-142.25;100.00;58004.16;5039185;28;20054;-67
2023/01/07 04:29:34;;;;;;;446.87;205.53;;;;;;;-142.25;100.00;58004.16;5038165;28;20290;-69
2023/01/07 04:32:01;;;;;;;442.33;194.47;;;;;;;-142.25;100.00;58004.16;5038910;28;20069;-69
2023/01/07 04:34:27;;;;;;;441.03;189.73;;;;;;;-142.25;100.00;58004.16;5036061;28;20029;-70
2023/01/07 04:36:54;;;;;;;440.43;194.97;;;;;;;-142.25;100.00;58004.16;5041334;28;20415;-71
2023/01/07 04:39:21;;;;;;;432.67;177.87;;;;;;;-142.25;100.00;58004.16;5050507;28;20140;-70
2023/01/07 04:41:47;;;;;;;432.60;186.83;;;;;;;-142.25;100.00;58004.16;5037973;28;20321;-69
2023/01/07 04:44:14;;;;;;;440.53;196.40;;;;;;;-142.25;100.00;58004.16;5031995;28;20053;-71
2023/01/07 04:46:40;;;;;;;438.63;180.67;;;;;;;-142.25;100.00;58004.16;5032517;28;20037;-69
2023/01/07 04:49:06;;;;;;;436.23;178.67;;;;;;;-142.25;100.00;58004.16;5032193;28;20726;-69
2023/01/07 04:51:31;;;;;;;436.50;178.63;;;;;;;-142.25;100.00;58004.16;5040603;28;20487;-71
2023/01/07 04:53:58;;;;;;;430.00;172.83;;;;;;;-142.25;100.00;58004.16;5032128;28;20111;-69
2023/01/07 04:56:24;;;;;;;425.30;160.73;;;;;;;-142.25;100.00;58004.16;5036198;28;20287;-69
2023/01/07 04:58:49;;;;;;;417.67;153.87;;;;;;;-142.25;100.00;58004.16;5035774;28;20566;-69
2023/01/07 05:01:16;;;;;;;425.50;162.03;;;;;;;-142.25;100.00;58004.16;5033717;28;20448;-69
2023/01/07 05:03:42;;;;;;;432.83;161.57;;;;;;;-142.25;100.00;58004.16;5039346;28;20776;-69
2023/01/07 05:06:08;;;;;;;414.80;172.67;;;;;;;-142.25;100.00;58004.16;5026534;28;20296;-69
2023/01/07 05:08:35;;;;;;;409.97;147.30;;;;;;;-142.25;100.00;58004.16;5031114;28;20045;-69
2023/01/07 05:11:04;;;;;;;409.40;164.63;;;;;;;-142.25;100.00;58004.16;5015113;28;20900;-69
2023/01/07 05:13:34;;;;;;;407.97;144.47;;;;;;;-142.25;100.00;58004.16;5035440;28;20292;-69
2023/01/07 05:16:01;;;;;;;411.83;145.20;;;;;;;-142.25;100.00;58004.16;5034990;28;20298;-69
2023/01/07 05:18:28;;;;;;;407.73;142.30;;;;;;;-142.25;100.00;58004.16;5033184;28;20397;-69
2023/01/07 05:20:54;;;;;;;413.47;147.67;;;;;;;-142.25;100.00;58004.16;5033730;28;20394;-69
2023/01/07 05:23:20;;;;;;;416.83;143.83;;;;;;;-142.25;100.00;58004.16;5035780;28;20367;-70
2023/01/07 05:25:47;;;;;;;407.80;144.77;;;;;;;-142.25;100.00;58004.16;5023333;28;20033;-69
2023/01/07 05:28:13;;;;;;;410.73;143.27;;;;;;;-142.25;100.00;58004.16;5030845;28;20346;-68
2023/01/07 05:30:39;;;;;;;411.83;139.93;;;;;;;-142.25;100.00;58004.16;5034141;28;20057;-69
2023/01/07 05:33:06;;;;;;;402.37;133.83;;;;;;;-142.25;100.00;58004.16;5037418;28;20284;-69
2023/01/07 05:35:34;;;;;;;394.90;140.07;;;;;;;-142.25;100.00;58004.16;5036215;28;20303;-69
2023/01/07 05:38:00;;;;;;;409.87;143.83;;;;;;;-142.25;100.00;58004.16;5042185;28;20283;-69
2023/01/07 05:40:26;;;;;;;403.55;145.10;;;;;;;-142.25;100.00;58004.16;5034164;28;20287;-68
2023/01/07 05:42:52;;;;;;;402.93;146.67;;;;;;;-142.25;100.00;58004.16;5036390;28;20548;-69
2023/01/07 05:45:20;;;;;;;405.50;136.50;;;;;;;-142.25;100.00;58004.16;5042741;28;20131;-70
2023/01/07 05:47:46;;;;;;;405.33;140.10;;;;;;;-142.25;100.00;58004.16;5037554;28;20048;-71
2023/01/07 05:50:13;;;;;;;418.77;146.93;;;;;;;-142.25;100.00;58004.16;5035948;28;20379;-66
2023/01/07 05:52:38;;;;;;;411.40;144.27;;;;;;;-142.25;100.00;58004.16;5030231;28;20413;-70
2023/01/07 05:55:05;;;;;;;407.27;135.03;;;;;;;-142.25;100.00;58004.16;5033801;28;20136;-70
2023/01/07 05:57:31;;;;;;;411.47;136.47;;;;;;;-142.25;100.00;58004.16;5036475;28;20044;-68
2023/01/07 05:59:57;;;;;;;412.37;136.83;;;;;;;-142.25;100.00;58004.16;5032895;28;20297;-69
2023/01/07 06:02:23;;;;;;;413.83;136.97;;;;;;;-142.25;100.00;58004.16;5036468;28;20300;-68
2023/01/07 06:04:48;;;;;;;418.90;139.87;;;;;;;-142.25;100.00;58004.16;5035825;28;20068;-69
2023/01/07 06:07:14;;;;;;;426.27;146.60;;;;;;;-142.25;100.00;58004.16;5036039;28;20041;-70
2023/01/07 06:09:40;;;;;;;423.60;144.40;;;;;;;-142.25;100.00;58004.16;5038684;28;20045;-69
2023/01/07 06:12:06;;;;;;;425.70;146.30;;;;;;;-142.25;100.00;58004.16;5034269;28;20605;-69
2023/01/07 06:14:31;;;;;;;431.93;143.23;;;;;;;-142.25;100.00;58004.16;5036994;28;20043;-71
2023/01/07 06:16:57;;;;;;;435.83;146.57;;;;;;;-142.25;100.00;58004.16;5035485;28;20311;-69
2023/01/07 06:19:22;;;;;;;432.50;147.07;;;;;;;-142.25;100.00;58004.16;5037142;28;20389;-70
2023/01/07 06:21:48;;;;;;;431.57;147.87;;;;;;;-142.25;100.00;58004.16;5037693;28;20511;-69
2023/01/07 06:24:14;;;;;;;429.93;143.80;;;;;;;-142.25;100.00;58004.16;5036238;28;20135;-68
2023/01/07 06:26:40;;;;;;;428.13;143.03;;;;;;;-142.25;100.00;58004.16;5038174;28;20537;-68
2023/01/07 06:29:06;;;;;;;427.63;145.60;;;;;;;-142.25;100.00;58004.16;5038678;28;20056;-65
2023/01/07 06:31:32;;;;;;;426.20;142.17;;;;;;;-142.25;100.00;58004.16;5041235;28;20045;-68
2023/01/07 06:33:57;;;;;;;428.40;146.00;;;;;;;-142.25;100.00;58004.16;5050285;28;20228;-66
2023/01/07 06:36:23;;;;;;;430.77;146.80;;;;;;;-142.25;100.00;58004.16;5043253;28;20750;-65
2023/01/07 06:38:48;;;;;;;431.00;148.97;;;;;;;-142.25;100.00;58004.16;5035213;28;20050;-65
2023/01/07 06:41:14;;;;;;;426.80;142.20;;;;;;;-142.25;100.00;58004.16;5038536;28;20954;-65
2023/01/07 06:43:40;;;;;;;425.83;142.97;;;;;;;-142.25;100.00;58004.16;5039804;28;20049;-65
2023/01/07 06:46:05;;;;;;;428.60;144.70;;;;;;;-142.25;100.00;58004.16;5039680;28;20182;-64
2023/01/07 06:48:31;;;;;;;429.30;148.30;;;;;;;-142.25;100.00;58004.16;5045856;28;20076;-64
2023/01/07 06:50:56;;;;;;;430.10;149.83;;;;;;;-142.25;100.00;58004.16;5041493;28;20051;-65
2023/01/07 06:53:22;;;;;;;429.80;147.40;;;;;;;-142.25;100.00;58004.16;5035569;28;20160;-66
2023/01/07 06:55:49;;;;;;;430.93;149.00;;;;;;;-142.25;100.00;58004.16;5036062;28;20033;-67
2023/01/07 06:58:15;;;;;;;430.03;142.20;;;;;;;-142.25;100.00;58004.16;5036813;28;20052;-69
2023/01/07 07:00:41;;;;;;;427.90;147.90;;;;;;;-142.25;100.00;58004.16;5039478;28;20370;-70
2023/01/07 07:03:07;;;;;;;429.33;142.67;;;;;;;-142.25;100.00;58004.16;5039792;28;20374;-68
2023/01/07 07:05:33;;;;;;;428.33;142.53;;;;;;;-142.25;100.00;58004.16;5041312;28;20047;-69
2023/01/07 07:07:59;;;;;;;429.20;145.87;;;;;;;-142.25;100.00;58004.16;5039068;28;20128;-71
2023/01/07 07:10:25;;;;;;;428.17;143.70;;;;;;;-142.25;100.00;58004.16;5040049;28;20290;-72
2023/01/07 07:12:51;;;;;;;429.93;150.40;;;;;;;-142.25;100.00;58004.16;5038352;28;20361;-73
2023/01/07 07:15:17;;;;;;;426.30;147.33;;;;;;;-142.25;100.00;58004.16;5017576;28;20291;-68
2023/01/07 07:17:42;;;;;;;431.83;158.00;;;;;;;-142.25;100.00;58004.16;5039914;28;20057;-68
2023/01/07 07:20:08;;;;;;;422.10;144.17;;;;;;;-142.25;100.00;58004.16;5038393;28;20688;-69
2023/01/07 07:22:34;;;;;;;429.13;149.43;;;;;;;-142.25;100.00;58004.16;5039373;28;20095;-68
2023/01/07 07:24:59;;;;;;;426.10;142.80;;;;;;;-142.25;100.00;58004.16;5038379;28;20275;-69
2023/01/07 07:27:25;;;;;;;424.93;144.87;;;;;;;-142.25;100.00;58004.16;5036917;28;20059;-69
2023/01/07 07:29:50;;;;;;;430.17;148.23;;;;;;;-142.25;100.00;58004.16;5038529;28;20033;-69
2023/01/07 07:32:16;;;;;;;428.20;151.70;;;;;;;-142.25;100.00;58004.16;5041100;28;20106;-69
2023/01/07 07:34:42;;;;;;;425.67;147.03;;;;;;;-142.25;100.00;58004.16;5038127;28;20048;-68
2023/01/07 07:37:08;;;;;;;430.57;161.63;;;;;;;-142.25;100.00;58004.16;5035122;28;20287;-69
2023/01/07 07:39:33;;;;;;;429.20;166.43;;;;;;;-142.25;100.00;58004.16;5032282;28;20731;-69
2023/01/07 07:42:05;;;;;;;429.93;162.87;;;;;;;-142.25;100.00;58004.16;5034992;28;20433;-69
2023/01/07 07:44:31;;;;;;;433.77;166.60;;;;;;;-142.25;100.00;58004.16;5030772;28;20045;-69
2023/01/07 07:46:56;;;;;;;433.53;170.13;;;;;;;-142.25;100.00;58004.16;5035298;28;20308;-69
2023/01/07 07:49:22;;;;;;;432.60;167.53;;;;;;;-142.25;100.00;58004.16;5035646;28;20060;-69
2023/01/07 07:51:49;;;;;;;434.03;172.43;;;;;;;-142.25;100.00;58004.16;5037532;28;20518;-68
2023/01/07 07:54:15;;;;;;;436.10;178.83;;;;;;;-142.25;100.00;58004.16;5030347;28;20562;-68
2023/01/07 07:56:40;;;;;;;435.67;177.67;;;;;;;-142.25;100.00;58004.16;5032384;28;20331;-67
2023/01/07 07:59:06;;;;;;;434.17;176.83;;;;;;;-142.25;100.00;58004.16;5035617;28;20388;-69
2023/01/07 08:01:32;;;;;;;436.93;182.90;;;;;;;-142.25;100.00;58004.16;5035208;28;20037;-69
2023/01/07 08:03:57;;;;;;;435.80;184.67;;;;;;;-142.25;100.00;58004.16;5030678;28;20033;-69
2023/01/07 08:06:23;;;;;;;439.13;188.87;;;;;;;-142.25;100.00;58004.16;5034180;28;20045;-69
2023/01/07 08:08:49;;;;;;;433.53;180.10;;;;;;;-142.25;100.00;58004.16;5038177;28;20081;-69
2023/01/07 08:11:15;;;;;;;437.83;185.60;;;;;;;-142.25;100.00;58004.16;5044340;28;20618;-73
2023/01/07 08:13:41;;;;;;;438.23;192.90;;;;;;;-142.25;100.00;58004.16;5039455;28;20284;-69
2023/01/07 08:16:07;;;;;;;434.70;191.87;;;;;;;-142.25;100.00;58004.16;5038303;28;20292;-69
2023/01/07 08:18:33;;;;;;;432.50;195.83;;;;;;;-142.25;100.00;58004.16;5033827;28;20041;-69
2023/01/07 08:20:58;;;;;;;433.90;194.07;;;;;;;-142.25;100.00;58004.16;5041238;28;20276;-68
2023/01/07 08:23:26;;;;;;;435.37;198.20;;;;;;;-142.25;100.00;58004.16;5037262;28;20835;-68
2023/01/07 08:25:52;;;;;;;436.57;195.73;;;;;;;-142.25;100.00;58004.16;5035896;28;20072;-68
2023/01/07 08:28:18;;;;;;;436.93;198.60;;;;;;;-142.25;100.00;58004.16;5028688;28;20621;-68
2023/01/07 08:30:43;;;;;;;435.87;197.77;;;;;;;-142.25;100.00;58004.16;5030702;28;20045;-68
2023/01/07 08:33:09;;;;;;;436.30;205.17;;;;;;;-142.25;100.00;58004.16;5033110;28;20429;-69
2023/01/07 08:35:35;;;;;;;436.33;210.23;;;;;;;-142.25;100.00;58004.16;5030241;28;20554;-67
2023/01/07 08:38:05;;;;;;;436.97;207.33;;;;;;;-142.25;100.00;58004.16;5033014;28;21005;-68
2023/01/07 08:40:32;;;;;;;437.97;216.27;;;;;;;-142.25;100.00;58004.16;5030425;28;20037;-68
2023/01/07 08:43:02;;;;;;;439.40;218.97;;;;;;;-142.25;100.00;58004.16;5037249;28;20359;-66
2023/01/07 08:45:28;;;;;;;439.03;219.47;;;;;;;-142.25;100.00;58004.16;5035415;28;20787;-67
2023/01/07 08:47:56;;;;;;;440.57;226.57;;;;;;;-142.25;100.00;58004.16;5035424;28;20627;-68
2023/01/07 08:50:32;;;;;;;437.90;223.80;;;;;;;-142.25;100.00;58004.16;5035028;28;20308;-68
2023/01/07 08:52:58;;;;;;;438.17;229.00;;;;;;;-142.25;100.00;58004.16;5034199;28;20283;-68
2023/01/07 08:55:24;;;;;;;444.33;237.83;;;;;;;-142.25;100.00;58004.16;5029487;28;20374;-69
2023/01/07 08:57:50;;;;;;;446.47;241.17;;;;;;;-142.25;100.00;58004.16;5032567;28;20053;-68
2023/01/07 09:00:17;;;;;;;445.17;235.77;;;;;;;-142.25;100.00;58004.16;5034043;28;20279;-69
2023/01/07 09:02:43;;;;;;;446.90;248.90;;;;;;;-142.25;100.00;58004.16;5036110;28;20290;-69
2023/01/07 09:05:10;;;;;;;446.50;246.17;;;;;;;-142.25;100.00;58004.16;5037116;28;20364;-68
2023/01/07 09:07:36;;;;;;;449.33;258.73;;;;;;;-142.25;100.00;58004.16;5036579;28;20595;-68
2023/01/07 09:10:02;;;;;;;446.77;252.37;;;;;;;-142.25;100.00;58004.16;5031072;28;20770;-68
2023/01/07 09:12:28;;;;;;;447.13;252.03;;;;;;;-142.25;100.00;58004.16;5026440;28;20124;-68
2023/01/07 09:14:53;;;;;;;443.93;250.53;;;;;;;-142.25;100.00;58004.16;5029011;28;20291;-69
2023/01/07 09:17:19;;;;;;;444.93;251.30;;;;;;;-142.25;100.00;58004.16;5035253;28;20369;-69
2023/01/07 09:19:45;;;;;;;446.77;263.50;;;;;;;-142.25;100.00;58004.16;5034131;28;20041;-68
2023/01/07 09:22:10;;;;;;;450.70;261.97;;;;;;;-142.25;100.00;58004.16;5032968;28;20052;-69
2023/01/07 09:24:36;;;;;;;447.80;261.70;;;;;;;-142.25;100.00;58004.16;5029839;28;20045;-68
2023/01/07 09:27:02;;;;;;;452.17;274.33;;;;;;;-142.25;100.00;58004.16;5017333;28;20487;-69
2023/01/07 09:29:27;;;;;;;452.37;272.40;;;;;;;-142.25;100.00;58004.16;5029603;28;20045;-69
2023/01/07 09:31:53;;;;;;;450.50;270.10;;;;;;;-142.25;100.00;58004.16;5033311;28;20042;-69
2023/01/07 09:34:19;;;;;;;454.97;287.20;;;;;;;-142.25;100.00;58004.16;5029240;28;20325;-69
2023/01/07 09:36:44;;;;;;;454.37;290.27;;;;;;;-142.25;100.00;58004.16;5028967;28;20513;-69
2023/01/07 09:39:11;;;;;;;455.00;290.07;;;;;;;-142.25;100.00;58004.16;5029264;28;20133;-68
2023/01/07 09:41:36;;;;;;;457.13;297.83;;;;;;;-142.25;100.00;58004.16;5031588;28;20113;-68
2023/01/07 09:44:14;;;;;;;457.70;300.87;;;;;;;-142.25;100.00;58004.16;5033969;28;20291;-68
2023/01/07 09:46:41;;;;;;;457.97;315.03;;;;;;;-142.25;100.00;58004.16;5033890;28;20029;-68
2023/01/07 09:49:17;;;;;;;465.43;318.27;;;;;;;-142.25;100.00;58004.16;5029731;28;20407;-68
2023/01/07 09:51:47;;;;;;;465.67;326.27;;;;;;;-142.25;100.00;58004.16;5029174;28;20036;-68
2023/01/07 09:54:25;;;;;;;462.90;326.17;;;;;;;-142.25;100.00;58004.16;5035367;28;20037;-70
2023/01/07 09:56:50;;;;;;;465.73;340.13;;;;;;;-142.25;100.00;58004.16;5030558;28;20055;-68
2023/01/07 09:59:18;;;;;;;465.27;339.10;;;;;;;-142.25;100.00;58004.16;5029613;28;20326;-68
2023/01/07 10:01:47;;;;;;;465.90;344.80;;;;;;;-142.25;100.00;58004.16;5033518;28;20041;-68
2023/01/07 10:04:34;;;;;;;464.23;348.43;;;;;;;-142.25;100.00;58004.16;5036083;28;20033;-68
2023/01/07 10:07:36;;;;;;;464.87;339.47;;;;;;;-142.25;100.00;58004.16;5036537;28;20542;-69
2023/01/07 10:10:05;;;;;;;463.20;345.87;;;;;;;-142.25;100.00;58004.16;5034415;28;20040;-68
2023/01/07 10:12:52;;;;;;;462.97;331.17;;;;;;;-142.25;100.00;58004.16;5033241;28;20268;-68
2023/01/07 10:16:00;;;;;;;469.47;359.67;;;;;;;-142.25;100.00;58004.16;5030852;28;20053;-68
2023/01/07 10:18:51;;;;;;;465.30;339.20;;;;;;;-142.25;100.00;58004.16;5034077;28;20293;-68
2023/01/07 10:21:28;;;;;;;466.70;350.13;;;;;;;-142.25;100.00;58004.16;5032044;28;20061;-69
2023/01/07 10:24:02;;;;;;;464.47;344.80;;;;;;;-142.25;100.00;58004.16;5032413;28;20033;-68
2023/01/07 10:26:38;;;;;;;457.93;325.77;;;;;;;-142.25;100.00;58004.16;5032243;28;20129;-69
2023/01/07 10:29:33;;;;;;;461.20;353.53;;;;;;;-142.25;100.00;58004.16;5033041;28;20292;-69
2023/01/07 10:32:07;;;;;;;328.40;260.20;;;;;;;-142.25;100.00;58004.16;5033451;28;20917;-68
2023/01/07 10:34:46;;;;;;;457.53;332.63;;;;;;;-142.25;100.00;58004.16;5033898;28;20049;-69
2023/01/07 10:37:28;;;;;;;454.97;333.30;;;;;;;-142.25;100.00;58004.16;5034305;28;20273;-69
2023/01/07 10:40:16;;;;;;;454.37;321.23;;;;;;;-142.25;100.00;58004.16;5032464;28;20334;-69
2023/01/07 10:42:51;;;;;;;458.63;339.73;;;;;;;-142.25;100.00;58004.16;5032767;28;20282;-68
2023/01/07 10:45:29;;;;;;;458.85;338.63;;;;;;;-142.25;100.00;58004.16;5034567;28;20765;-69
2023/01/07 10:48:17;;;;;;;456.20;337.00;;;;;;;-142.25;100.00;58004.16;5034622;28;20120;-69
2023/01/07 10:50:49;;;;;;;463.90;373.43;;;;;;;-142.25;100.00;58004.16;5034154;28;20283;-69
2023/01/07 10:53:30;;;;;;;460.23;344.07;;;;;;;-142.25;100.00;58004.16;5030217;28;20283;-69